createdAt,value
2022-11-30T00:01:28.480Z,14.93
2022-11-30T00:03:57.278Z,15.23
2022-11-30T00:06:26.448Z,15.40
2022-11-30T00:08:55.142Z,15.07
2022-11-30T00:11:24.653Z,15.93
2022-11-30T00:13:53.422Z,15.15
2022-11-30T00:16:23.836Z,15.15
2022-11-30T00:18:52.588Z,14.73
2022-11-30T00:21:21.504Z,14.68
2022-11-30T00:23:50.404Z,15.15
2022-11-30T00:26:22.403Z,15.07
2022-11-30T00:28:51.145Z,14.50
2022-11-30T00:31:20.969Z,14.43
2022-11-30T00:33:51.079Z,14.38
2022-11-30T00:36:21.162Z,15.02
2022-11-30T00:38:50.074Z,16.27
2022-11-30T00:41:19.070Z,14.88
2022-11-30T00:43:47.891Z,14.40
2022-11-30T00:46:16.450Z,16.20
2022-11-30T00:48:45.113Z,14.95
2022-11-30T00:51:15.036Z,15.20
2022-11-30T00:53:44.083Z,15.93
2022-11-30T00:56:12.892Z,15.32
2022-11-30T00:58:41.481Z,14.68
2022-11-30T01:01:10.241Z,13.88
2022-11-30T01:03:38.933Z,15.27
2022-11-30T01:06:08.107Z,14.65
2022-11-30T01:08:38.075Z,14.95
2022-11-30T01:11:08.813Z,14.57
2022-11-30T01:13:37.406Z,14.90
2022-11-30T01:16:10.536Z,16.08
2022-11-30T01:18:39.380Z,15.75
2022-11-30T01:21:08.655Z,15.95
2022-11-30T01:23:38.672Z,15.80
2022-11-30T01:26:07.312Z,16.73
2022-11-30T01:28:36.057Z,16.50
2022-11-30T01:31:05.640Z,15.85
2022-11-30T01:33:34.414Z,14.68
2022-11-30T01:36:03.618Z,16.30
2022-11-30T01:38:35.811Z,16.27
2022-11-30T01:41:06.329Z,17.17
2022-11-30T01:43:41.971Z,15.80
2022-11-30T01:46:19.870Z,17.10
2022-11-30T01:48:49.957Z,16.10
2022-11-30T01:51:18.570Z,16.17
2022-11-30T01:53:47.324Z,16.90
2022-11-30T01:56:18.184Z,16.98
2022-11-30T01:58:46.755Z,17.00
2022-11-30T02:01:15.275Z,17.10
2022-11-30T02:03:48.343Z,17.15
2022-11-30T02:06:17.200Z,17.73
2022-11-30T02:08:45.852Z,16.95
2022-11-30T02:11:16.475Z,16.42
2022-11-30T02:13:58.575Z,16.35
2022-11-30T02:16:29.456Z,17.88
2022-11-30T02:19:02.278Z,17.98
2022-11-30T02:21:34.901Z,17.02
2022-11-30T02:24:22.342Z,18.17
2022-11-30T02:26:56.585Z,16.85
2022-11-30T02:29:27.128Z,17.42
2022-11-30T02:31:57.422Z,17.98
2022-11-30T02:34:28.780Z,18.50
2022-11-30T02:36:57.582Z,18.70
2022-11-30T02:39:26.061Z,17.48
2022-11-30T02:41:54.632Z,18.02
2022-11-30T02:44:23.649Z,18.35
2022-11-30T02:47:00.714Z,18.40
2022-11-30T02:49:33.236Z,19.77
2022-11-30T02:52:02.781Z,19.25
2022-11-30T02:54:31.310Z,18.17
2022-11-30T02:57:00.031Z,19.20
2022-11-30T02:59:28.711Z,18.75
2022-11-30T03:01:58.704Z,18.77
2022-11-30T03:04:27.435Z,17.63
2022-11-30T03:06:56.025Z,17.80
2022-11-30T03:09:24.516Z,17.88
2022-11-30T03:11:53.086Z,16.85
2022-11-30T03:14:21.563Z,17.48
2022-11-30T03:16:50.144Z,17.67
2022-11-30T03:19:20.613Z,17.15
2022-11-30T03:21:49.210Z,16.58
2022-11-30T03:24:17.741Z,16.02
2022-11-30T03:26:46.344Z,15.55
2022-11-30T03:29:14.904Z,16.00
2022-11-30T03:31:43.508Z,15.07
2022-11-30T03:34:12.292Z,14.90
2022-11-30T03:36:42.213Z,14.80
2022-11-30T03:39:10.760Z,14.77
2022-11-30T03:41:39.296Z,14.25
2022-11-30T03:44:07.860Z,13.98
2022-11-30T03:46:36.463Z,13.77
2022-11-30T03:49:05.195Z,13.52
2022-11-30T03:51:33.778Z,13.95
2022-11-30T03:54:03.751Z,13.02
2022-11-30T03:56:32.450Z,14.20
2022-11-30T03:59:00.947Z,13.57
2022-11-30T04:01:29.756Z,13.77
2022-11-30T04:03:58.380Z,13.55
2022-11-30T04:06:27.155Z,15.20
2022-11-30T04:08:55.770Z,14.35
2022-11-30T04:11:25.758Z,14.98
2022-11-30T04:13:54.307Z,14.43
2022-11-30T04:16:22.994Z,15.40
2022-11-30T04:18:51.617Z,16.42
2022-11-30T04:21:20.135Z,16.48
2022-11-30T04:23:48.772Z,16.65
2022-11-30T04:26:17.937Z,16.55
2022-11-30T04:28:47.851Z,16.10
2022-11-30T04:31:16.575Z,16.83
2022-11-30T04:33:45.125Z,16.05
2022-11-30T04:36:17.878Z,16.88
2022-11-30T04:38:46.449Z,16.20
2022-11-30T04:41:15.167Z,16.52
2022-11-30T04:43:43.753Z,15.73
2022-11-30T04:46:13.739Z,17.23
2022-11-30T04:48:42.414Z,16.65
2022-11-30T04:51:11.232Z,16.83
2022-11-30T04:53:40.186Z,16.98
2022-11-30T04:56:08.763Z,16.70
2022-11-30T04:58:38.717Z,16.00
2022-11-30T05:01:07.648Z,16.42
2022-11-30T05:03:37.695Z,16.52
2022-11-30T05:06:06.435Z,15.95
2022-11-30T05:08:35.017Z,16.08
2022-11-30T05:11:03.563Z,17.00
2022-11-30T05:13:32.153Z,15.32
2022-11-30T05:16:00.789Z,16.10
2022-11-30T05:18:31.662Z,15.95
2022-11-30T05:21:01.605Z,14.77
2022-11-30T05:23:30.466Z,15.30
2022-11-30T05:25:59.010Z,16.48
2022-11-30T05:28:27.638Z,16.00
2022-11-30T05:30:56.155Z,15.18
2022-11-30T05:33:24.834Z,16.35
2022-11-30T05:35:53.339Z,15.00
2022-11-30T05:38:23.832Z,16.00
2022-11-30T05:40:52.684Z,15.25
2022-11-30T05:43:21.320Z,15.30
2022-11-30T05:45:49.838Z,16.40
2022-11-30T05:48:18.446Z,14.82
2022-11-30T05:50:46.962Z,14.88
2022-11-30T05:53:15.554Z,14.85
2022-11-30T05:55:45.495Z,15.48
2022-11-30T05:58:14.244Z,15.20
2022-11-30T06:00:42.745Z,14.60
2022-11-30T06:03:11.412Z,14.90
2022-11-30T06:05:40.074Z,13.93
2022-11-30T06:08:08.599Z,13.95
2022-11-30T06:10:38.028Z,13.90
2022-11-30T06:13:10.094Z,14.90
2022-11-30T06:15:38.726Z,13.82
2022-11-30T06:18:07.666Z,13.93
2022-11-30T06:20:36.260Z,13.18
2022-11-30T06:23:04.938Z,14.77
2022-11-30T06:25:33.561Z,14.65
2022-11-30T06:28:02.216Z,13.70
2022-11-30T06:30:32.113Z,14.27
2022-11-30T06:33:00.711Z,14.38
2022-11-30T06:35:29.313Z,13.75
2022-11-30T06:38:00.481Z,13.20
2022-11-30T06:40:29.219Z,13.70
2022-11-30T06:42:57.696Z,14.13
2022-11-30T06:45:26.350Z,13.20
2022-11-30T06:47:57.765Z,14.43
2022-11-30T06:50:26.404Z,13.45
2022-11-30T06:52:55.855Z,12.95
2022-11-30T06:55:24.724Z,13.98
2022-11-30T06:57:53.234Z,13.57
2022-11-30T07:00:22.134Z,12.70
2022-11-30T07:02:50.669Z,13.13
2022-11-30T07:05:20.566Z,13.27
2022-11-30T07:07:49.117Z,12.90
2022-11-30T07:10:20.217Z,12.98
2022-11-30T07:12:49.101Z,12.63
2022-11-30T07:15:17.745Z,11.98
2022-11-30T07:17:46.276Z,12.25
2022-11-30T07:20:15.010Z,13.32
2022-11-30T07:22:44.891Z,13.10
2022-11-30T07:25:31.264Z,11.70
2022-11-30T07:27:59.797Z,12.25
2022-11-30T07:30:28.379Z,12.13
2022-11-30T07:32:56.944Z,13.05
2022-11-30T07:35:25.527Z,12.15
2022-11-30T07:37:55.455Z,12.88
2022-11-30T07:40:24.046Z,12.68
2022-11-30T07:42:56.949Z,12.00
2022-11-30T07:45:25.500Z,12.32
2022-11-30T07:47:54.897Z,12.30
2022-11-30T07:50:27.061Z,12.18
2022-11-30T07:52:57.029Z,13.45
2022-11-30T07:55:25.624Z,13.30
2022-11-30T07:57:54.893Z,14.23
2022-11-30T08:00:23.472Z,12.68
2022-11-30T08:02:52.312Z,13.52
2022-11-30T08:05:20.977Z,13.60
2022-11-30T08:07:52.497Z,14.60
2022-11-30T08:12:51.111Z,13.43
2022-11-30T08:15:21.346Z,13.70
2022-11-30T08:17:55.143Z,14.95
2022-11-30T08:20:24.337Z,14.20
2022-11-30T08:22:52.934Z,14.48
2022-11-30T08:25:21.589Z,13.00
2022-11-30T08:27:51.460Z,14.35
2022-11-30T08:30:20.027Z,13.98
2022-11-30T08:32:48.585Z,14.70
2022-11-30T08:35:17.152Z,14.95
2022-11-30T08:37:45.750Z,15.85
2022-11-30T08:40:14.610Z,14.68
2022-11-30T08:42:43.113Z,14.27
2022-11-30T08:45:13.372Z,14.43
2022-11-30T08:47:41.955Z,14.25
2022-11-30T08:50:10.876Z,14.15
2022-11-30T08:52:39.417Z,13.75
2022-11-30T08:55:08.479Z,14.38
2022-11-30T08:57:37.055Z,14.98
2022-11-30T09:00:05.958Z,15.05
2022-11-30T09:02:35.918Z,15.07
2022-11-30T09:05:04.520Z,14.15
2022-11-30T09:07:33.489Z,15.20
2022-11-30T09:10:02.135Z,14.18
2022-11-30T09:12:30.689Z,14.38
2022-11-30T09:14:59.992Z,14.65
2022-11-30T09:17:28.691Z,15.05
2022-11-30T09:19:58.621Z,13.55
2022-11-30T09:22:27.258Z,14.95
2022-11-30T09:24:56.210Z,13.45
2022-11-30T09:27:30.200Z,14.07
2022-11-30T09:29:58.763Z,13.57
2022-11-30T09:32:27.435Z,13.52
2022-11-30T09:34:56.055Z,13.77
2022-11-30T09:37:25.960Z,13.55
2022-11-30T09:39:54.526Z,13.70
2022-11-30T09:42:34.864Z,14.10
2022-11-30T09:45:05.424Z,13.75
2022-11-30T09:47:40.280Z,14.23
2022-11-30T09:50:14.441Z,13.77
2022-11-30T09:52:46.105Z,13.13
2022-11-30T09:57:45.887Z,13.07
2022-11-30T10:00:16.000Z,14.23
2022-11-30T10:02:44.758Z,12.98
2022-11-30T10:05:15.066Z,13.48
2022-11-30T10:07:51.852Z,12.32
2022-11-30T10:10:33.354Z,13.55
2022-11-30T10:13:04.727Z,13.18
2022-11-30T10:15:39.007Z,11.80
2022-11-30T10:18:12.584Z,12.45
2022-11-30T10:20:48.528Z,12.00
2022-11-30T10:23:27.920Z,12.60
2022-11-30T10:25:58.176Z,12.93
2022-11-30T10:28:49.536Z,12.38
2022-11-30T10:31:18.801Z,12.70
2022-11-30T10:33:48.400Z,12.05
2022-11-30T10:36:27.285Z,11.73
2022-11-30T10:39:00.167Z,11.30
2022-11-30T10:41:31.393Z,12.13
2022-11-30T10:44:02.416Z,12.07
2022-11-30T10:46:33.114Z,11.35
2022-11-30T10:49:04.861Z,11.47
2022-11-30T10:51:34.217Z,12.13
2022-11-30T10:54:04.835Z,12.07
2022-11-30T10:56:33.362Z,11.23
2022-11-30T10:59:04.176Z,10.95
2022-11-30T11:01:34.753Z,11.05
2022-11-30T11:04:09.948Z,10.98
2022-11-30T11:06:41.106Z,11.80
2022-11-30T11:12:04.300Z,10.75
2022-11-30T11:14:37.730Z,11.25
2022-11-30T11:17:07.765Z,11.18
2022-11-30T11:19:37.916Z,11.63
2022-11-30T11:22:08.552Z,10.60
2022-11-30T11:24:37.707Z,11.30
2022-11-30T11:27:07.623Z,11.55
2022-11-30T11:29:37.096Z,11.20
2022-11-30T11:32:26.471Z,11.15
2022-11-30T11:34:55.347Z,10.85
2022-11-30T11:37:26.328Z,10.82
2022-11-30T11:40:02.602Z,10.15
2022-11-30T11:42:34.065Z,10.85
2022-11-30T11:45:03.974Z,9.63
2022-11-30T11:47:38.452Z,10.18
2022-11-30T11:50:57.741Z,9.80
2022-11-30T11:53:22.952Z,9.00
2022-11-30T11:55:52.836Z,9.27
2022-11-30T11:58:26.532Z,9.82
2022-11-30T12:01:10.823Z,9.82
2022-11-30T12:03:47.461Z,9.68
2022-11-30T12:06:17.660Z,10.18
2022-11-30T12:08:48.525Z,10.82
2022-11-30T12:11:20.106Z,11.15
2022-11-30T12:16:26.608Z,11.25
2022-11-30T12:18:58.214Z,11.75
2022-11-30T12:24:00.795Z,12.13
2022-11-30T12:26:32.722Z,12.20
2022-11-30T12:31:35.136Z,12.90
2022-11-30T12:34:09.064Z,12.90
2022-11-30T12:36:46.805Z,12.95
2022-11-30T12:39:18.105Z,12.90
2022-11-30T12:41:51.515Z,11.93
2022-11-30T12:44:29.182Z,13.05
2022-11-30T12:47:02.705Z,12.80
2022-11-30T12:49:39.314Z,12.85
2022-11-30T12:52:14.318Z,12.32
2022-11-30T12:54:45.920Z,13.05
2022-11-30T12:57:18.240Z,12.73
2022-11-30T12:59:49.551Z,12.05
2022-11-30T13:02:40.208Z,11.82
2022-11-30T13:05:09.943Z,13.10
2022-11-30T13:07:41.376Z,12.18
2022-11-30T13:10:18.701Z,12.32
2022-11-30T13:12:50.908Z,11.52
2022-11-30T13:15:20.255Z,11.68
2022-11-30T13:17:50.869Z,12.35
2022-11-30T13:20:23.136Z,11.63
2022-11-30T13:22:55.385Z,12.30
2022-11-30T13:25:59.827Z,10.98
2022-11-30T13:28:19.978Z,11.10
2022-11-30T13:30:52.406Z,11.10
2022-11-30T13:33:38.743Z,11.23
2022-11-30T13:36:22.902Z,11.18
2022-11-30T13:39:10.215Z,11.23
2022-11-30T13:41:39.173Z,11.13
2022-11-30T13:44:07.944Z,11.07
2022-11-30T13:46:36.643Z,10.38
2022-11-30T13:49:13.142Z,12.50
2022-11-30T13:51:43.069Z,10.80
2022-11-30T13:54:32.486Z,10.48
2022-11-30T13:57:01.065Z,10.05
2022-11-30T13:59:41.330Z,10.05
2022-11-30T14:05:25.655Z,9.45
2022-11-30T14:08:12.948Z,9.95
2022-11-30T14:10:43.612Z,10.55
2022-11-30T14:13:31.785Z,10.05
2022-11-30T14:16:01.723Z,10.55
2022-11-30T14:18:40.353Z,10.55
2022-11-30T14:21:19.887Z,10.50
2022-11-30T14:23:59.452Z,11.10
2022-11-30T14:26:32.172Z,11.73
2022-11-30T14:29:04.553Z,11.00
2022-11-30T14:31:35.438Z,11.63
2022-11-30T14:34:06.331Z,11.35
2022-11-30T14:36:36.379Z,11.25
2022-11-30T14:39:05.566Z,11.50
2022-11-30T14:41:35.451Z,12.07
2022-11-30T14:44:06.246Z,11.98
2022-11-30T14:46:36.250Z,10.88
2022-11-30T14:49:08.477Z,12.27
2022-11-30T14:51:38.753Z,12.82
2022-11-30T14:54:12.515Z,13.15
2022-11-30T14:56:45.207Z,13.45
2022-11-30T14:59:24.026Z,14.48
2022-11-30T15:01:57.343Z,13.23
2022-11-30T15:04:27.804Z,13.50
2022-11-30T15:06:57.068Z,14.45
2022-11-30T15:09:27.519Z,14.43
2022-11-30T15:11:57.564Z,14.23
2022-11-30T15:14:26.301Z,14.00
2022-11-30T15:16:55.687Z,14.32
2022-11-30T15:19:25.049Z,14.02
2022-11-30T15:21:54.133Z,14.48
2022-11-30T15:24:23.166Z,14.93
2022-11-30T15:26:54.856Z,15.38
2022-11-30T15:31:54.003Z,13.25
2022-11-30T15:34:23.938Z,13.90
2022-11-30T15:36:55.563Z,14.00
2022-11-30T15:41:55.277Z,13.20
2022-11-30T15:44:25.116Z,14.93
2022-11-30T15:46:59.687Z,14.40
2022-11-30T15:49:29.161Z,13.93
2022-11-30T15:52:04.395Z,13.55
2022-11-30T15:54:45.594Z,13.90
2022-11-30T15:57:14.310Z,14.50
2022-11-30T15:59:42.942Z,14.63
2022-11-30T16:02:28.287Z,14.75
2022-11-30T16:05:13.610Z,13.73
2022-11-30T16:07:50.147Z,15.55
2022-11-30T16:10:20.445Z,17.38
2022-11-30T16:12:50.434Z,19.70
2022-11-30T16:15:20.042Z,22.42
2022-11-30T16:17:49.968Z,25.05
2022-11-30T16:20:20.934Z,24.40
2022-11-30T16:22:50.621Z,23.02
2022-11-30T16:25:20.833Z,23.00
2022-11-30T16:27:49.784Z,19.65
2022-11-30T16:30:19.242Z,19.15
2022-11-30T16:32:47.864Z,18.00
2022-11-30T16:35:21.752Z,17.05
2022-11-30T16:37:50.449Z,16.80
2022-11-30T16:40:19.471Z,15.57
2022-11-30T16:42:50.047Z,16.27
2022-11-30T16:45:19.754Z,16.27
2022-11-30T16:47:48.330Z,15.60
2022-11-30T16:50:17.140Z,14.65
2022-11-30T16:52:47.258Z,16.00
2022-11-30T16:55:16.426Z,16.25
2022-11-30T16:57:45.039Z,17.25
2022-11-30T17:00:15.683Z,16.83
2022-11-30T17:02:46.861Z,17.95
2022-11-30T17:05:16.173Z,17.52
2022-11-30T17:07:45.017Z,17.98
2022-11-30T17:10:15.241Z,17.33
2022-11-30T17:12:43.821Z,17.48
2022-11-30T17:15:16.492Z,17.90
2022-11-30T17:17:45.362Z,17.52
2022-11-30T17:20:14.467Z,16.80
2022-11-30T17:22:43.970Z,17.40
2022-11-30T17:25:16.106Z,18.27
2022-11-30T17:27:44.805Z,19.35
2022-11-30T17:30:14.068Z,18.50
2022-11-30T17:32:42.723Z,18.15
2022-11-30T17:35:11.838Z,18.33
2022-11-30T17:37:40.591Z,17.50
2022-11-30T17:40:12.808Z,17.90
2022-11-30T17:42:42.954Z,17.02
2022-11-30T17:45:12.039Z,18.20
2022-11-30T17:47:40.554Z,19.23
2022-11-30T17:50:10.062Z,18.40
2022-11-30T17:52:38.653Z,18.23
2022-11-30T17:55:07.704Z,17.60
2022-11-30T17:57:38.297Z,17.65
2022-11-30T18:00:09.693Z,16.55
2022-11-30T18:02:38.339Z,17.67
2022-11-30T18:05:07.281Z,16.92
2022-11-30T18:07:36.015Z,16.60
2022-11-30T18:10:04.596Z,16.13
2022-11-30T18:12:34.086Z,16.52
2022-11-30T18:15:02.664Z,16.63
2022-11-30T18:17:32.776Z,16.70
2022-11-30T18:20:01.361Z,15.40
2022-11-30T18:22:30.105Z,15.98
2022-11-30T18:24:58.667Z,15.15
2022-11-30T18:27:27.543Z,14.80
2022-11-30T18:29:56.208Z,15.95
2022-11-30T18:32:24.778Z,16.13
2022-11-30T18:34:54.742Z,15.95
2022-11-30T18:37:23.395Z,16.55
2022-11-30T18:39:51.971Z,16.23
2022-11-30T18:42:21.126Z,15.43
2022-11-30T18:44:50.132Z,22.23
2022-11-30T18:47:19.014Z,36.75
2022-11-30T18:49:47.507Z,75.72
2022-11-30T18:52:17.490Z,68.15
2022-11-30T18:54:46.454Z,67.80
2022-11-30T18:57:15.320Z,64.13
2022-11-30T18:59:43.904Z,66.13
2022-11-30T19:02:12.494Z,49.35
2022-11-30T19:04:41.143Z,41.88
2022-11-30T19:07:09.764Z,56.97
2022-11-30T19:09:39.675Z,64.43
2022-11-30T19:12:08.610Z,113.18
2022-11-30T19:14:37.177Z,86.22
2022-11-30T19:17:05.987Z,68.88
2022-11-30T19:19:34.578Z,129.13
2022-11-30T19:22:04.071Z,61.88
2022-11-30T19:24:32.650Z,50.53
2022-11-30T19:27:02.561Z,44.22
2022-11-30T19:29:31.086Z,39.95
2022-11-30T19:32:02.400Z,35.75
2022-11-30T19:34:31.142Z,34.15
2022-11-30T19:36:59.712Z,30.75
2022-11-30T19:39:28.289Z,30.23
2022-11-30T19:41:57.012Z,27.83
2022-11-30T19:44:26.988Z,27.13
2022-11-30T19:46:55.551Z,25.98
2022-11-30T19:49:24.108Z,24.38
2022-11-30T19:51:53.059Z,22.48
2022-11-30T19:54:21.605Z,21.73
2022-11-30T19:56:50.249Z,21.23
2022-11-30T19:59:18.776Z,20.40
2022-11-30T20:01:48.885Z,19.42
2022-11-30T20:04:17.745Z,20.52
2022-11-30T20:06:46.305Z,20.63
2022-11-30T20:09:14.859Z,21.40
2022-11-30T20:11:43.557Z,19.50
2022-11-30T20:14:16.600Z,18.92
2022-11-30T20:16:45.143Z,20.10
2022-11-30T20:19:15.037Z,19.70
2022-11-30T20:21:44.050Z,21.00
2022-11-30T20:24:13.559Z,19.85
2022-11-30T20:26:43.038Z,22.38
2022-11-30T20:29:14.647Z,20.65
2022-11-30T20:34:11.762Z,21.60
2022-11-30T20:36:41.809Z,22.95
2022-11-30T20:39:11.809Z,22.95
2022-11-30T20:41:40.395Z,22.30
2022-11-30T20:44:08.966Z,23.55
2022-11-30T20:46:38.024Z,22.40
2022-11-30T20:49:12.892Z,22.38
2022-11-30T20:51:42.834Z,22.80
2022-11-30T20:54:12.463Z,21.58
2022-11-30T20:56:41.609Z,21.90
2022-11-30T20:59:11.011Z,22.33
2022-11-30T21:01:41.981Z,21.27
2022-11-30T21:04:10.706Z,20.75
2022-11-30T21:06:39.321Z,20.35
2022-11-30T21:09:09.280Z,20.55
2022-11-30T21:11:37.790Z,21.00
2022-11-30T21:14:06.310Z,20.58
2022-11-30T21:16:35.824Z,19.50
2022-11-30T21:19:04.651Z,18.52
2022-11-30T21:21:34.227Z,19.02
2022-11-30T21:24:03.758Z,19.80
2022-11-30T21:26:34.856Z,19.50
2022-11-30T21:29:04.216Z,19.02
2022-11-30T21:31:33.028Z,18.40
2022-11-30T21:34:01.845Z,18.33
2022-11-30T21:36:30.480Z,17.83
2022-11-30T21:39:05.146Z,19.33
2022-11-30T21:41:36.140Z,19.50
2022-11-30T21:44:04.861Z,17.13
2022-11-30T21:46:33.597Z,19.17
2022-11-30T21:49:02.859Z,19.23
2022-11-30T21:51:32.731Z,19.23
2022-11-30T21:54:02.013Z,20.58
2022-11-30T21:56:31.359Z,19.90
2022-11-30T21:59:01.324Z,19.80
2022-11-30T22:01:30.919Z,19.58
2022-11-30T22:04:00.135Z,20.42
2022-11-30T22:06:29.669Z,19.77
2022-11-30T22:09:02.746Z,20.42
2022-11-30T22:11:31.969Z,19.98
2022-11-30T22:14:01.849Z,19.48
2022-11-30T22:16:35.784Z,20.05
2022-11-30T22:19:07.464Z,18.73
2022-11-30T22:21:36.143Z,18.55
2022-11-30T22:24:15.428Z,56.45
2022-11-30T22:26:50.075Z,84.55
2022-11-30T22:29:21.360Z,90.70
2022-11-30T22:31:51.052Z,123.43
2022-11-30T22:34:19.710Z,75.88
2022-11-30T22:36:48.234Z,67.15
2022-11-30T22:39:17.604Z,54.33
2022-11-30T22:41:51.265Z,49.40
2022-11-30T22:44:24.770Z,83.40
2022-11-30T22:46:53.500Z,111.88
2022-11-30T22:49:22.336Z,108.00
2022-11-30T22:51:51.296Z,177.90
2022-11-30T22:54:20.341Z,117.88
2022-11-30T22:56:48.887Z,91.65
2022-11-30T22:59:17.630Z,75.35
2022-11-30T23:01:48.238Z,58.58
2022-11-30T23:04:17.510Z,44.50
2022-11-30T23:06:47.038Z,38.47
2022-11-30T23:09:16.549Z,36.10
2022-11-30T23:11:45.422Z,31.17
2022-11-30T23:14:16.197Z,28.58
2022-11-30T23:16:45.170Z,26.87
2022-11-30T23:19:15.311Z,25.02
2022-11-30T23:21:45.829Z,23.85
2022-11-30T23:24:16.418Z,23.58
2022-11-30T23:26:45.275Z,21.40
2022-11-30T23:29:15.096Z,22.25
2022-11-30T23:31:44.268Z,21.65
2022-11-30T23:34:14.150Z,20.45
2022-11-30T23:36:44.132Z,20.38
2022-11-30T23:39:13.746Z,21.50
2022-11-30T23:41:42.777Z,20.08
2022-11-30T23:44:11.969Z,20.80
2022-11-30T23:46:40.578Z,19.52
2022-11-30T23:49:09.368Z,20.08
2022-11-30T23:51:38.224Z,20.05
2022-11-30T23:54:08.163Z,21.20
2022-11-30T23:56:36.688Z,20.13
2022-11-30T23:59:05.969Z,19.90
